地図

経路データ

SID SEASON NUMBER BASIN SUBBASIN NAME ISO_TIME NATURE LAT LON WMO_WIND WMO_PRES WMO_AGENCY TRACK_TYPE DIST2LAND LANDFALL IFLAG USA_AGENCY USA_ATCF_ID USA_LAT USA_LON USA_RECORD USA_STATUS USA_WIND USA_PRES USA_SSHS USA_R34_NE USA_R34_SE USA_R34_SW USA_R34_NW USA_R50_NE USA_R50_SE USA_R50_SW USA_R50_NW USA_R64_NE USA_R64_SE USA_R64_SW USA_R64_NW USA_POCI USA_ROCI USA_RMW USA_EYE TOKYO_LAT TOKYO_LON TOKYO_GRADE TOKYO_WIND TOKYO_PRES TOKYO_R50_DIR TOKYO_R50_LONG TOKYO_R50_SHORT TOKYO_R30_DIR TOKYO_R30_LONG TOKYO_R30_SHORT TOKYO_LAND CMA_LAT CMA_LON CMA_CAT CMA_WIND CMA_PRES HKO_LAT HKO_LON HKO_CAT HKO_WIND HKO_PRES NEWDELHI_LAT NEWDELHI_LON NEWDELHI_GRADE NEWDELHI_WIND NEWDELHI_PRES NEWDELHI_CI NEWDELHI_DP NEWDELHI_POCI REUNION_LAT REUNION_LON REUNION_TYPE REUNION_WIND REUNION_PRES REUNION_TNUM REUNION_CI REUNION_RMW REUNION_R34_NE REUNION_R34_SE REUNION_R34_SW REUNION_R34_NW REUNION_R50_NE REUNION_R50_SE REUNION_R50_SW REUNION_R50_NW REUNION_R64_NE REUNION_R64_SE REUNION_R64_SW REUNION_R64_NW BOM_LAT BOM_LON BOM_TYPE BOM_WIND BOM_PRES BOM_TNUM BOM_CI BOM_RMW BOM_R34_NE BOM_R34_SE BOM_R34_SW BOM_R34_NW BOM_R50_NE BOM_R50_SE BOM_R50_SW BOM_R50_NW BOM_R64_NE BOM_R64_SE BOM_R64_SW BOM_R64_NW BOM_ROCI BOM_POCI BOM_EYE BOM_POS_METHOD BOM_PRES_METHOD NADI_LAT NADI_LON NADI_CAT NADI_WIND NADI_PRES WELLINGTON_LAT WELLINGTON_LON WELLINGTON_WIND WELLINGTON_PRES DS824_LAT DS824_LON DS824_STAGE DS824_WIND DS824_PRES TD9636_LAT TD9636_LON TD9636_STAGE TD9636_WIND TD9636_PRES TD9635_LAT TD9635_LON TD9635_WIND TD9635_PRES TD9635_ROCI NEUMANN_LAT NEUMANN_LON NEUMANN_CLASS NEUMANN_WIND NEUMANN_PRES MLC_LAT MLC_LON MLC_CLASS MLC_WIND MLC_PRES USA_GUST BOM_GUST BOM_GUST_PER REUNION_GUST REUNION_GUST_PER USA_SEAHGT USA_SEARAD_NE USA_SEARAD_SE USA_SEARAD_SW USA_SEARAD_NW STORM_SPEED STORM_DIR
1892204N23087 1892 28 NI BB NOT_NAMED 1892-07-22 00:00:00 TS 22.9000 87.2000 main 0 0 _________O____ -1 22.9000 87.2000 TC 30 4 268
1892204N23087 1892 28 NI BB NOT_NAMED 1892-07-22 03:00:00 TS 22.8934 86.9983 main 0 0 _________PO___ -1 22.8901 86.8975 TC 30 22.9000 87.2000 1 4 271
1892204N23087 1892 28 NI BB NOT_NAMED 1892-07-22 06:00:00 TS 22.9090 86.7188 main 0 0 _________OP___ -1 22.9000 86.6000 TC 30 22.9225 86.8970 1 5 275
1892204N23087 1892 28 NI BB NOT_NAMED 1892-07-22 09:00:00 TS 22.9438 86.4308 main 0 0 _________PP___ -1 22.9424 86.3075 TC 30 22.9457 86.5952 1 5 278
1892204N23087 1892 28 NI BB NOT_NAMED 1892-07-22 12:00:00 TS 22.9855 86.1479 main 0 0 _________OP___ -1 23.0000 86.0000 TC 30 22.9711 86.2958 1 6 278
1892204N23087 1892 28 NI BB NOT_NAMED 1892-07-22 15:00:00 TS 23.0250 85.8250 main 0 0 _________PO___ -1 23.0500 85.6500 TC 30 23.0000 86.0000 1 6 278
1892204N23087 1892 28 NI BB NOT_NAMED 1892-07-22 18:00:00 TS 23.0671 85.5032 main 0 0 _________OP___ -1 23.1000 85.3000 TC 30 23.0342 85.7063 1 6 279
1892204N23087 1892 28 NI BB NOT_NAMED 1892-07-22 21:00:00 TS 23.1094 85.2122 main 0 0 _________PP___ -1 23.1422 85.0224 TC 30 23.0767 85.4021 1 6 280
1892204N23087 1892 28 NI BB NOT_NAMED 1892-07-23 00:00:00 TS 23.1654 84.8859 main 0 0 _________OP___ -1 23.2000 84.7000 TC 30 23.1309 85.0718 1 7 281
1892204N23087 1892 28 NI BB NOT_NAMED 1892-07-23 03:00:00 TS 23.2463 84.4613 main 0 0 _________PO___ -1 23.2927 84.2226 TC 30 23.2000 84.7000 1 9 282
1892204N23087 1892 28 NI BB NOT_NAMED 1892-07-23 06:00:00 TS 23.3471 83.9782 main 0 0 _________OP___ -1 23.4000 83.7000 TC 30 23.2941 84.2563 1 9 283
1892204N23087 1892 28 NI BB NOT_NAMED 1892-07-23 09:00:00 TS 23.4540 83.5040 main 0 0 _________PP___ -1 23.5074 83.2350 TC 30 23.4005 83.7730 1 9 283
1892204N23087 1892 28 NI BB NOT_NAMED 1892-07-23 12:00:00 TS 23.5533 83.0391 main 0 0 _________OP___ -1 23.6000 82.8000 TC 30 23.5066 83.2782 1 9 282
1892204N23087 1892 28 NI BB NOT_NAMED 1892-07-23 15:00:00 TS 23.6287 82.5962 main 0 0 _________PO___ -1 23.6573 82.3924 TC 30 23.6000 82.8000 1 8 279
1892204N23087 1892 28 NI BB NOT_NAMED 1892-07-23 18:00:00 TS 23.6717 82.1908 main 0 0 _________OP___ -1 23.7000 82.0000 TC 30 23.6434 82.3817 1 7 276
1892204N23087 1892 28 NI BB NOT_NAMED 1892-07-23 21:00:00 TS 23.7057 81.7955 main 0 0 _________PP___ -1 23.7348 81.6073 TC 30 23.6766 81.9838 1 7 277
1892204N23087 1892 28 NI BB NOT_NAMED 1892-07-24 00:00:00 TS 23.7608 81.3970 main 0 0 _________OP___ -1 23.8000 81.2000 TC 30 23.7216 81.5941 1 8 282
1892204N23087 1892 28 NI BB NOT_NAMED 1892-07-24 03:00:00 TS 23.8637 80.9750 main 0 0 _________PO___ -1 23.9275 80.7500 TC 30 23.8000 81.2000 1 8 288
1892204N23087 1892 28 NI BB NOT_NAMED 1892-07-24 06:00:00 TS 24.0172 80.5512 main 0 0 _________OP___ -1 24.1000 80.3000 TC 30 23.9343 80.8024 1 8 294
1892204N23087 1892 28 NI BB NOT_NAMED 1892-07-24 09:00:00 TS 24.1981 80.1548 main 0 0 _________PP___ -1 24.2921 79.9148 TC 30 24.1040 80.3947 1 8 297
1892204N23087 1892 28 NI BB NOT_NAMED 1892-07-24 12:00:00 TS 24.3983 79.7323 main 0 0 _________OP___ -1 24.5000 79.5000 TC 30 24.2967 79.9647 1 9 296
1892204N23087 1892 28 NI BB NOT_NAMED 1892-07-24 15:00:00 TS 24.6000 79.2362 main 0 0 _________PO___ -1 24.7000 78.9724 TC 30 24.5000 79.5000 1 10 293
1892204N23087 1892 28 NI BB NOT_NAMED 1892-07-24 18:00:00 TS 24.7856 78.7145 main 0 0 _________OP___ -1 24.9000 78.4000 TC 30 24.6712 79.0290 1 10 291
1892204N23087 1892 28 NI BB NOT_NAMED 1892-07-24 21:00:00 TS 24.9685 78.2058 main 0 0 _________PP___ -1 25.0842 77.8943 TC 30 24.8529 78.5173 1 11 292
1892204N23087 1892 28 NI AS NOT_NAMED 1892-07-25 00:00:00 TS 25.1791 77.6236 main 0 0 _________OP___ -1 25.3000 77.3000 TC 30 25.0581 77.9471 1 13 292
1892204N23087 1892 28 NI AS NOT_NAMED 1892-07-25 03:00:00 TS 25.4389 76.8938 main 0 0 _________PO___ -1 25.5778 76.4875 TC 30 25.3000 77.3000 1 15 292
1892204N23087 1892 28 NI AS NOT_NAMED 1892-07-25 06:00:00 TS 25.7453 76.0654 main 0 0 _________OP___ -1 25.9000 75.6000 TC 30 25.5905 76.5307 1 16 293
1892204N23087 1892 28 NI AS NOT_NAMED 1892-07-25 09:00:00 TS 26.0821 75.2331 main 0 0 _________PP___ -1 26.2497 74.7774 TC 30 25.9146 75.6888 1 16 295
1892204N23087 1892 28 NI AS NOT_NAMED 1892-07-25 12:00:00 TS 26.4280 74.4136 main 0 0 _________OP___ -1 26.6000 74.0000 TC 30 26.2561 74.8273 1 16 295
1892204N23087 1892 28 NI AS NOT_NAMED 1892-07-25 15:00:00 TS 26.7498 73.6384 main 0 0 _________PO___ -1 26.8995 73.2768 TC 30 26.6000 74.0000 1 14 296
1892204N23087 1892 28 NI AS NOT_NAMED 1892-07-25 18:00:00 TS 27.0488 72.9708 main 0 0 _________OP___ -1 27.2000 72.6000 TC 30 26.9353 73.2488 1 13 298
1892204N23087 1892 28 NI AS NOT_NAMED 1892-07-25 21:00:00 TS 27.3726 72.3167 main 0 0 _________PP___ -1 27.5381 71.9460 TC 30 27.2623 72.5639 1 13 300
1892204N23087 1892 28 NI AS NOT_NAMED 1892-07-26 00:00:00 TS 27.6888 71.7147 main 0 0 _________OP___ -1 27.9000 71.3000 TC 30 27.5832 71.9220 1 10 300
1892204N23087 1892 28 NI AS NOT_NAMED 1892-07-26 03:00:00 NR 27.9000 71.3000 main 0 __________O___ -1 TC 27.9000 71.3000 1 8 300

IBTrACS Databaseについて

本データベースは、米国NOAAが公開する1842年以降の世界の熱帯低気圧のベストトラックデータアーカイブInternational Best Track Archive for Climate Stewardship (IBTrACS)を、ウェブで閲覧しやすい形式に変換したものです。

最終更新日:2021-11-26